Time;durP1;ratioP1;P1;durP2;ratioP2;P2;SDS_P1;SDS_P2;PMS_P1;PMS_P2;Temp;Humidity;BMP_temperature;BMP_pressure;BME280_temperature;BME280_humidity;BME280_pressure;Samples;Min_cycle;Max_cycle;Signal;HPM_P1;HPM_P2
2022/06/04 00:00:10;;;;;;;6.00;4.87;;;17.50;41.30;;;;;;5013188;28;20187;-69
2022/06/04 00:02:40;;;;;;;5.70;5.17;;;17.50;41.50;;;;;;5012786;28;20908;-69
2022/06/04 00:05:07;;;;;;;4.40;3.90;;;17.50;41.40;;;;;;5013222;28;20415;-69
2022/06/04 00:07:33;;;;;;;4.50;4.03;;;17.50;41.20;;;;;;5013280;28;20446;-70
2022/06/04 00:15:32;;;;;;;5.73;5.23;;;17.30;41.20;;;;;;5012583;28;20780;-69
2022/06/04 00:17:59;;;;;;;5.57;4.27;;;17.40;41.10;;;;;;5012439;28;20573;-68
2022/06/04 00:20:25;;;;;;;6.30;4.20;;;17.40;40.70;;;;;;5012819;28;20498;-69
2022/06/04 00:23:00;;;;;;;7.70;4.13;;;17.40;40.40;;;;;;5012346;28;20896;-70
2022/06/04 00:25:26;;;;;;;4.20;3.77;;;17.40;40.60;;;;;;5012222;28;20422;-68
2022/06/04 00:27:51;;;;;;;5.00;4.27;;;17.40;40.30;;;;;;5011238;28;20449;-70
2022/06/04 00:30:17;;;;;;;5.70;4.57;;;17.40;40.30;;;;;;5012416;28;20175;-70
2022/06/04 00:32:42;;;;;;;5.03;4.53;;;17.30;41.30;;;;;;5012008;28;20195;-69
2022/06/04 00:35:08;;;;;;;6.77;5.80;;;17.30;41.40;;;;;;5012842;28;20184;-68
2022/06/04 00:37:35;;;;;;;4.90;3.70;;;17.30;41.30;;;;;;5012217;28;20215;-70
2022/06/04 00:40:02;;;;;;;11.53;5.00;;;17.30;40.80;;;;;;5013067;28;20630;-69
2022/06/04 00:42:28;;;;;;;4.03;3.63;;;17.30;40.70;;;;;;5012543;28;20411;-69
2022/06/04 00:45:21;;;;;;;5.77;4.63;;;17.20;40.90;;;;;;5012349;28;20415;-69
2022/06/04 00:47:48;;;;;;;4.30;3.90;;;17.20;40.70;;;;;;5012074;28;20211;-70
2022/06/04 00:50:16;;;;;;;5.30;3.20;;;17.30;40.20;;;;;;5012405;28;20429;-69
2022/06/04 00:52:43;;;;;;;4.60;4.17;;;17.30;39.80;;;;;;5011770;28;20442;-70
2022/06/04 00:55:10;;;;;;;6.90;4.73;;;17.20;40.40;;;;;;5012068;28;20842;-69
2022/06/04 00:58:02;;;;;;;4.83;4.23;;;17.20;40.20;;;;;;5011952;28;20466;-70
2022/06/04 01:00:35;;;;;;;4.63;4.10;;;17.20;40.10;;;;;;5012040;28;20414;-69
2022/06/04 01:03:14;;;;;;;4.90;4.50;;;17.10;40.60;;;;;;5011611;28;20417;-69
2022/06/04 01:05:47;;;;;;;5.20;3.80;;;17.10;41.30;;;;;;5012235;28;20410;-69
2022/06/04 01:08:25;;;;;;;5.83;3.77;;;17.10;40.50;;;;;;5011915;28;20441;-68
2022/06/04 01:11:16;;;;;;;3.63;3.03;;;17.10;40.40;;;;;;5010784;28;20439;-69
2022/06/04 01:13:58;;;;;;;3.67;3.37;;;17.10;41.00;;;;;;5010662;28;20565;-69
2022/06/04 01:16:40;;;;;;;4.00;3.70;;;17.10;40.50;;;;;;5012013;28;20501;-69
2022/06/04 01:19:32;;;;;;;5.00;4.60;;;17.10;40.50;;;;;;5012400;28;20423;-69
2022/06/04 01:22:27;;;;;;;3.70;3.30;;;17.10;39.70;;;;;;5012104;28;20398;-68
2022/06/04 01:25:15;;;;;;;5.90;3.60;;;17.20;39.10;;;;;;5015994;28;20489;-69
2022/06/04 01:27:45;;;;;;;3.70;3.40;;;17.20;38.40;;;;;;5016084;28;20434;-69
2022/06/04 01:30:20;;;;;;;3.73;3.40;;;17.10;38.90;;;;;;5015655;28;20410;-69
2022/06/04 01:33:03;;;;;;;4.60;4.17;;;17.00;39.40;;;;;;5015388;28;20899;-69
2022/06/04 01:35:30;;;;;;;5.27;3.83;;;16.90;39.80;;;;;;5015590;28;20429;-69
2022/06/04 01:38:13;;;;;;;4.07;3.20;;;16.90;40.30;;;;;;5015201;28;20548;-68
2022/06/04 01:41:07;;;;;;;3.93;3.40;;;16.90;39.90;;;;;;5015328;28;20486;-69
2022/06/04 01:43:39;;;;;;;3.43;3.13;;;16.70;41.00;;;;;;5015199;28;20845;-69
2022/06/04 01:46:36;;;;;;;3.97;3.33;;;16.70;40.80;;;;;;5015329;28;20425;-69
2022/06/04 01:49:33;;;;;;;5.13;4.50;;;16.70;40.60;;;;;;5015238;28;20423;-70
2022/06/04 01:52:03;;;;;;;4.80;4.30;;;16.70;40.80;;;;;;5014700;28;20425;-69
2022/06/04 01:54:49;;;;;;;5.40;4.40;;;16.50;41.70;;;;;;5015056;28;20417;-69
2022/06/04 01:57:30;;;;;;;3.97;3.20;;;16.40;41.90;;;;;;5026840;22;20624;-71
2022/06/04 02:00:01;;;;;;;4.03;3.63;;;16.40;41.90;;;;;;4996941;28;20422;-69
2022/06/04 02:02:34;;;;;;;6.27;4.83;;;16.40;41.90;;;;;;4996388;28;20454;-69
2022/06/04 02:05:03;;;;;;;4.10;3.00;;;16.40;41.90;;;;;;4996654;28;20828;-70
2022/06/04 02:07:34;;;;;;;4.13;3.57;;;16.40;41.90;;;;;;4996325;28;20420;-71
2022/06/04 02:10:10;;;;;;;4.90;3.87;;;16.40;41.90;;;;;;4996852;28;20404;-70
2022/06/04 02:12:38;;;;;;;4.40;3.93;;;16.40;41.90;;;;;;4995754;28;20791;-70
2022/06/04 02:15:07;;;;;;;4.43;4.03;;;16.40;41.90;;;;;;4995178;28;20423;-70
2022/06/04 02:17:35;;;;;;;5.50;3.90;;;16.50;42.00;;;;;;4995879;28;20467;-70
2022/06/04 02:20:00;;;;;;;4.50;3.20;;;16.50;42.00;;;;;;4995981;28;20419;-70
2022/06/04 02:22:26;;;;;;;3.90;3.20;;;16.50;42.10;;;;;;4995889;28;20422;-70
2022/06/04 02:24:51;;;;;;;2.97;2.67;;;16.50;42.10;;;;;;4996072;28;20184;-69
2022/06/04 02:27:17;;;;;;;3.60;3.00;;;16.50;42.70;;;;;;4994825;28;20234;-71
2022/06/04 02:29:43;;;;;;;4.33;3.93;;;16.50;42.00;;;;;;4995786;28;20180;-71
2022/06/04 02:32:21;;;;;;;5.23;4.57;;;16.50;42.00;;;;;;4995589;28;20183;-70
2022/06/04 02:35:14;;;;;;;4.03;3.50;;;16.50;42.00;;;;;;4994992;28;20687;-70
2022/06/04 02:37:56;;;;;;;4.57;4.17;;;16.40;41.90;;;;;;4995765;28;20490;-70
2022/06/04 02:40:28;;;;;;;4.37;3.83;;;16.40;41.90;;;;;;4995775;28;20446;-70
2022/06/04 02:43:15;;;;;;;3.70;3.40;;;16.30;42.30;;;;;;4993878;28;20427;-70
2022/06/04 02:46:04;;;;;;;4.50;3.90;;;16.30;42.10;;;;;;4994467;28;20447;-70
2022/06/04 02:48:41;;;;;;;5.23;3.90;;;16.20;42.90;;;;;;4995216;28;20446;-70
2022/06/04 02:51:14;;;;;;;4.40;4.00;;;16.10;44.50;;;;;;4995131;28;20779;-70
2022/06/04 02:53:41;;;;;;;3.97;3.57;;;16.20;43.30;;;;;;4994896;28;20428;-71
2022/06/04 02:56:10;;;;;;;5.40;4.67;;;16.20;43.10;;;;;;4994932;28;20412;-71
2022/06/04 02:58:39;;;;;;;5.00;4.00;;;16.30;42.70;;;;;;4994544;28;20477;-71
2022/06/04 03:01:08;;;;;;;5.03;3.90;;;16.20;43.40;;;;;;4994852;28;20418;-71
2022/06/04 03:03:35;;;;;;;6.83;4.50;;;16.20;42.90;;;;;;4994591;28;20407;-71
2022/06/04 03:06:03;;;;;;;4.83;4.40;;;16.10;43.40;;;;;;4993291;28;20423;-69
2022/06/04 03:08:33;;;;;;;5.87;5.33;;;16.10;43.80;;;;;;4994723;28;20449;-70
2022/06/04 03:10:59;;;;;;;3.67;3.33;;;16.10;44.20;;;;;;4994636;28;20480;-71
2022/06/04 03:13:25;;;;;;;3.20;2.87;;;16.10;43.90;;;;;;4994384;28;20446;-70
2022/06/04 03:15:51;;;;;;;5.57;3.80;;;16.10;44.40;;;;;;4993143;28;20435;-70
2022/06/04 03:18:18;;;;;;;5.10;4.20;;;16.20;44.00;;;;;;4994132;28;20463;-69
2022/06/04 03:20:44;;;;;;;4.73;4.30;;;16.30;43.70;;;;;;4994109;28;20420;-71
2022/06/04 03:23:10;;;;;;;6.80;4.37;;;16.30;43.60;;;;;;4992720;28;20461;-70
2022/06/04 03:25:38;;;;;;;3.83;3.40;;;16.30;43.60;;;;;;4993074;28;20506;-70
2022/06/04 03:28:05;;;;;;;3.90;3.50;;;16.40;42.40;;;;;;4993912;28;20196;-71
2022/06/04 03:30:31;;;;;;;5.63;4.20;;;16.40;42.30;;;;;;4992666;28;20412;-69
2022/06/04 03:32:57;;;;;;;4.57;3.17;;;16.50;42.00;;;;;;4993684;28;20438;-70
2022/06/04 03:35:23;;;;;;;3.83;3.10;;;16.50;41.40;;;;;;4993975;28;20265;-70
2022/06/04 03:37:48;;;;;;;3.53;3.23;;;16.60;41.70;;;;;;4993873;28;20223;-70
2022/06/04 03:40:15;;;;;;;3.67;3.37;;;16.60;42.00;;;;;;4993849;28;20412;-70
2022/06/04 03:42:41;;;;;;;4.50;4.07;;;16.60;40.80;;;;;;4993859;28;20235;-71
2022/06/04 03:45:09;;;;;;;3.70;3.30;;;16.70;40.80;;;;;;4993343;28;20416;-71
2022/06/04 03:47:38;;;;;;;4.23;3.50;;;16.80;41.20;;;;;;4993165;28;20680;-71
2022/06/04 03:50:10;;;;;;;3.70;3.40;;;16.90;40.00;;;;;;4993913;28;20411;-70
2022/06/04 03:52:36;;;;;;;2.93;2.63;;;17.10;39.50;;;;;;4993622;28;20440;-71
2022/06/04 03:55:01;;;;;;;4.50;3.10;;;17.20;37.90;;;;;;4993942;28;20688;-71
2022/06/04 03:57:39;;;;;;;3.70;3.40;;;17.30;38.60;;;;;;4993327;28;20900;-71
2022/06/04 04:00:15;;;;;;;3.63;3.33;;;17.40;38.00;;;;;;4993552;28;20184;-70
2022/06/04 04:02:41;;;;;;;4.40;3.13;;;17.50;37.60;;;;;;4993500;28;20432;-71
2022/06/04 04:05:09;;;;;;;3.73;3.43;;;17.70;37.80;;;;;;4993618;28;20416;-71
2022/06/04 04:07:34;;;;;;;3.97;3.30;;;17.80;36.80;;;;;;4992042;28;20475;-71
2022/06/04 04:10:00;;;;;;;4.07;3.70;;;17.90;36.00;;;;;;4992353;28;20840;-70
2022/06/04 04:12:27;;;;;;;3.00;2.70;;;17.90;35.70;;;;;;4993423;28;20234;-71
2022/06/04 04:14:52;;;;;;;3.60;3.30;;;18.10;36.00;;;;;;4993485;28;20272;-70
2022/06/04 04:17:18;;;;;;;3.63;3.33;;;18.10;34.70;;;;;;4991971;28;20919;-71
2022/06/04 04:19:43;;;;;;;4.10;3.70;;;18.20;34.20;;;;;;4993202;28;20243;-71
2022/06/04 04:22:09;;;;;;;3.57;3.27;;;18.40;34.10;;;;;;4993070;28;20267;-71
2022/06/04 04:24:34;;;;;;;4.70;4.30;;;18.40;33.20;;;;;;4993274;28;20246;-71
2022/06/04 04:27:00;;;;;;;4.17;3.83;;;18.40;33.20;;;;;;4993093;28;20331;-71
2022/06/04 04:29:25;;;;;;;4.30;4.00;;;18.30;33.60;;;;;;4992952;28;20694;-71
2022/06/04 04:31:51;;;;;;;4.07;3.67;;;18.30;33.70;;;;;;4992705;28;20254;-71
2022/06/04 04:34:17;;;;;;;3.57;3.33;;;18.50;33.60;;;;;;4992913;28;20647;-71
2022/06/04 04:36:45;;;;;;;12.07;4.30;;;18.50;33.20;;;;;;4991498;28;20207;-71
2022/06/04 04:39:11;;;;;;;3.10;2.90;;;18.60;32.40;;;;;;4993059;28;20653;-71
2022/06/04 04:41:36;;;;;;;7.20;3.70;;;18.40;33.20;;;;;;4992630;28;20796;-71
2022/06/04 04:44:02;;;;;;;4.00;3.70;;;18.50;33.30;;;;;;4992753;28;20420;-71
2022/06/04 04:46:28;;;;;;;4.17;3.87;;;18.60;33.30;;;;;;4991608;28;20275;-71
2022/06/04 04:48:53;;;;;;;4.03;3.73;;;18.80;32.90;;;;;;4992743;28;20443;-71
2022/06/04 04:51:26;;;;;;;4.90;4.50;;;19.10;32.30;;;;;;4992785;28;20169;-71
2022/06/04 04:53:52;;;;;;;7.53;4.37;;;19.30;30.90;;;;;;4993152;28;20556;-71
2022/06/04 04:56:20;;;;;;;5.97;4.87;;;19.50;31.00;;;;;;4992487;28;20494;-70
2022/06/04 04:58:46;;;;;;;5.57;5.13;;;19.50;30.00;;;;;;4994467;28;20459;-71
2022/06/04 05:01:24;;;;;;;6.43;4.43;;;19.40;29.30;;;;;;4996463;28;20478;-69
2022/06/04 05:03:51;;;;;;;4.13;3.83;;;18.70;32.40;;;;;;4996890;28;20259;-68
2022/06/04 05:06:18;;;;;;;4.50;4.10;;;18.60;33.30;;;;;;4996341;28;20458;-68
2022/06/04 05:08:44;;;;;;;4.33;4.00;;;18.70;33.90;;;;;;4996241;28;20439;-68
2022/06/04 05:11:16;;;;;;;10.67;6.13;;;19.20;33.90;;;;;;4996332;28;20438;-70
2022/06/04 05:13:42;;;;;;;5.73;5.33;;;19.70;32.10;;;;;;4995269;28;20423;-70
2022/06/04 05:16:08;;;;;;;7.80;7.20;;;20.20;29.60;;;;;;4996515;28;20411;-71
2022/06/04 05:18:34;;;;;;;7.53;6.83;;;20.50;28.40;;;;;;4996283;28;20514;-70
2022/06/04 05:21:20;;;;;;;8.23;7.63;;;20.70;27.80;;;;;;4996305;28;20251;-71
2022/06/04 05:23:46;;;;;;;10.60;7.83;;;20.80;27.10;;;;;;4996655;28;20591;-72
2022/06/04 05:26:11;;;;;;;9.57;8.87;;;20.90;26.90;;;;;;4996254;28;20411;-71
2022/06/04 05:28:37;;;;;;;8.60;8.00;;;20.90;26.20;;;;;;4996182;28;20568;-71
2022/06/04 05:31:03;;;;;;;7.67;7.03;;;20.80;26.70;;;;;;4995027;28;20189;-71
2022/06/04 05:33:29;;;;;;;9.40;8.57;;;20.80;26.30;;;;;;4995821;28;20173;-71
2022/06/04 05:35:55;;;;;;;8.63;7.93;;;20.80;26.30;;;;;;4996912;28;20408;-71
2022/06/04 05:38:20;;;;;;;8.40;7.90;;;20.60;26.60;;;;;;4996196;28;20212;-70
2022/06/04 05:40:46;;;;;;;12.77;8.30;;;20.40;26.90;;;;;;4994630;28;20512;-71
2022/06/04 05:43:12;;;;;;;8.83;8.20;;;20.30;27.40;;;;;;4994419;28;20187;-70
2022/06/04 05:45:37;;;;;;;8.40;7.80;;;20.20;28.20;;;;;;4995731;28;20173;-70
2022/06/04 05:48:03;;;;;;;7.30;6.80;;;20.20;28.70;;;;;;4995638;28;20689;-70
2022/06/04 05:50:29;;;;;;;6.93;6.33;;;19.90;29.40;;;;;;4995507;28;20192;-71
2022/06/04 05:52:55;;;;;;;6.17;5.77;;;20.00;29.50;;;;;;4995781;28;20408;-71
2022/06/04 05:55:22;;;;;;;7.50;6.70;;;20.10;29.50;;;;;;4977697;28;20190;-70
2022/06/04 05:57:47;;;;;;;6.73;6.23;;;20.10;29.20;;;;;;4975909;28;20250;-70
2022/06/04 06:00:14;;;;;;;7.77;7.10;;;20.20;29.30;;;;;;4991493;28;20426;-70
2022/06/04 06:02:40;;;;;;;7.20;6.70;;;20.10;28.90;;;;;;4993859;28;20268;-71
2022/06/04 06:05:05;;;;;;;6.70;6.20;;;20.10;28.40;;;;;;4995324;28;20973;-70
2022/06/04 06:07:31;;;;;;;6.03;5.63;;;20.00;29.10;;;;;;4994293;28;20572;-71
2022/06/04 06:09:57;;;;;;;5.97;5.50;;;20.10;28.40;;;;;;4994907;28;20180;-71
2022/06/04 06:12:23;;;;;;;5.47;5.03;;;19.40;29.10;;;;;;4995286;28;20188;-67
2022/06/04 06:14:48;;;;;;;5.73;4.87;;;19.50;30.90;;;;;;4996073;28;20177;-68
2022/06/04 06:17:14;;;;;;;6.80;5.00;;;19.70;29.70;;;;;;4995212;28;20847;-68
2022/06/04 06:19:39;;;;;;;5.17;4.60;;;19.50;30.60;;;;;;4995081;28;20176;-67
2022/06/04 06:22:05;;;;;;;5.13;4.27;;;19.50;30.80;;;;;;4994689;28;20187;-68
2022/06/04 06:24:31;;;;;;;5.03;4.60;;;19.40;31.30;;;;;;4994907;28;20180;-68
2022/06/04 06:26:59;;;;;;;5.37;4.93;;;19.70;30.90;;;;;;4995104;28;20179;-69
2022/06/04 06:29:28;;;;;;;5.60;5.10;;;19.70;31.20;;;;;;4994920;28;20172;-68
2022/06/04 06:31:55;;;;;;;5.87;5.37;;;19.80;31.30;;;;;;4994831;28;20427;-68
2022/06/04 06:34:22;;;;;;;4.50;4.20;;;19.80;31.50;;;;;;4995233;28;20420;-68
2022/06/04 06:36:48;;;;;;;5.77;4.97;;;19.90;31.90;;;;;;4994952;28;20451;-68
2022/06/04 06:39:14;;;;;;;5.90;4.73;;;19.80;31.90;;;;;;4993712;28;20486;-68
2022/06/04 06:41:40;;;;;;;4.37;3.93;;;19.50;33.00;;;;;;4993464;28;20459;-68
2022/06/04 06:44:06;;;;;;;7.27;4.27;;;19.50;33.30;;;;;;4994849;28;20408;-69
2022/06/04 06:46:36;;;;;;;6.70;4.70;;;19.60;34.20;;;;;;4995118;28;20415;-68
2022/06/04 06:49:23;;;;;;;4.77;3.87;;;19.60;32.40;;;;;;4995408;28;20191;-68
2022/06/04 06:51:51;;;;;;;5.20;4.33;;;19.60;33.30;;;;;;4994274;28;20412;-69
2022/06/04 06:54:19;;;;;;;3.47;2.90;;;19.50;33.40;;;;;;4994514;28;20408;-68
2022/06/04 06:56:46;;;;;;;3.60;3.30;;;19.30;34.60;;;;;;4994271;28;20546;-69
2022/06/04 06:59:13;;;;;;;5.20;3.93;;;19.40;34.10;;;;;;4991918;28;20446;-68
2022/06/04 07:01:41;;;;;;;4.87;3.60;;;19.30;33.60;;;;;;4993541;28;20451;-67
2022/06/04 07:04:07;;;;;;;5.23;3.20;;;19.40;33.40;;;;;;4993635;28;20424;-68
2022/06/04 07:06:42;;;;;;;4.80;3.63;;;19.60;34.20;;;;;;4994044;28;20511;-68
2022/06/04 07:09:20;;;;;;;3.33;3.13;;;19.90;33.30;;;;;;4994107;28;20295;-69
2022/06/04 07:11:46;;;;;;;4.40;3.90;;;19.90;34.50;;;;;;4993904;28;20439;-70
2022/06/04 07:14:12;;;;;;;4.20;3.80;;;20.20;35.10;;;;;;4991589;28;20723;-71
2022/06/04 07:16:39;;;;;;;4.73;4.07;;;20.40;34.90;;;;;;4989510;28;20489;-70
2022/06/04 07:19:05;;;;;;;4.07;3.60;;;20.50;35.00;;;;;;4989762;28;20444;-70
2022/06/04 07:21:31;;;;;;;5.73;4.10;;;20.60;34.60;;;;;;4989060;28;20427;-73
2022/06/04 07:23:58;;;;;;;4.80;4.33;;;20.60;33.20;;;;;;4990047;28;20861;-69
2022/06/04 07:26:25;;;;;;;6.00;5.60;;;20.60;33.30;;;;;;4989507;28;20416;-70
2022/06/04 07:28:50;;;;;;;6.07;5.50;;;20.80;33.20;;;;;;4990377;28;20501;-70
2022/06/04 07:31:16;;;;;;;6.37;5.87;;;21.00;32.90;;;;;;4989061;28;20981;-69
2022/06/04 07:33:47;;;;;;;4.93;4.53;;;20.70;32.50;;;;;;4989749;28;20566;-70
2022/06/04 07:36:18;;;;;;;6.33;5.73;;;20.30;33.00;;;;;;4989851;28;20498;-71
2022/06/04 07:38:44;;;;;;;7.07;5.97;;;20.40;34.40;;;;;;4990150;28;20976;-69
2022/06/04 07:41:17;;;;;;;6.10;5.50;;;20.60;33.80;;;;;;4989166;28;20525;-70
2022/06/04 07:43:43;;;;;;;5.47;4.87;;;20.60;31.30;;;;;;4987984;28;20435;-70
2022/06/04 07:46:08;;;;;;;5.50;5.00;;;20.20;34.70;;;;;;4988419;28;20484;-71
2022/06/04 07:48:33;;;;;;;6.97;6.40;;;20.60;35.10;;;;;;4990067;28;20204;-70
2022/06/04 07:51:02;;;;;;;6.60;5.50;;;20.90;33.30;;;;;;4988964;28;20197;-70
2022/06/04 07:53:27;;;;;;;8.60;6.60;;;21.30;33.90;;;;;;4988976;28;20181;-71
2022/06/04 07:55:53;;;;;;;7.93;7.10;;;22.20;32.60;;;;;;4988756;28;20905;-71
2022/06/04 07:58:18;;;;;;;10.47;9.60;;;23.20;30.00;;;;;;4999918;22;20241;-71
2022/06/04 08:00:44;;;;;;;11.20;10.50;;;24.40;26.40;;;;;;4943068;28;20245;-72
2022/06/04 08:03:10;;;;;;;12.10;11.40;;;25.30;24.40;;;;;;4950461;29;20182;-67
2022/06/04 08:05:35;;;;;;;12.83;11.97;;;25.90;22.20;;;;;;4951183;28;20270;-68
2022/06/04 08:08:01;;;;;;;13.50;12.80;;;26.50;20.50;;;;;;4964500;28;20620;-71
2022/06/04 08:10:27;;;;;;;12.50;11.90;;;26.70;19.20;;;;;;4941688;28;20201;-66
2022/06/04 08:12:55;;;;;;;14.67;13.97;;;26.80;19.10;;;;;;4934743;29;20178;-70
2022/06/04 08:15:22;;;;;;;12.87;12.07;;;26.80;18.50;;;;;;4935195;29;20179;-67
2022/06/04 08:17:47;;;;;;;11.83;11.13;;;25.00;20.00;;;;;;4935006;29;20834;-67
2022/06/04 08:20:14;;;;;;;12.27;11.47;;;25.10;21.20;;;;;;4940547;29;20449;-68
2022/06/04 08:22:40;;;;;;;14.00;12.83;;;25.10;21.10;;;;;;4953613;28;20174;-68
2022/06/04 08:25:06;;;;;;;11.93;11.03;;;25.20;21.90;;;;;;4951091;28;20804;-68
2022/06/04 08:27:31;;;;;;;12.40;11.60;;;25.70;22.20;;;;;;4954311;28;20425;-67
2022/06/04 08:29:57;;;;;;;13.23;12.40;;;26.30;21.10;;;;;;4954032;29;20417;-67
2022/06/04 08:32:22;;;;;;;13.17;12.50;;;26.60;19.20;;;;;;4959881;28;20261;-67
2022/06/04 08:34:48;;;;;;;12.63;11.93;;;26.70;19.00;;;;;;4953933;29;20209;-68
2022/06/04 08:37:13;;;;;;;11.40;10.80;;;26.70;18.10;;;;;;4953615;29;20205;-67
2022/06/04 08:39:39;;;;;;;13.23;11.87;;;26.40;19.20;;;;;;4954012;28;20603;-67
2022/06/04 08:42:11;;;;;;;11.23;10.73;;;26.30;19.60;;;;;;4953602;28;20178;-67
2022/06/04 08:44:52;;;;;;;12.20;11.50;;;26.50;19.50;;;;;;4954227;29;20543;-68
2022/06/04 08:47:25;;;;;;;12.47;11.87;;;26.70;18.60;;;;;;4953598;28;20429;-68
2022/06/04 08:50:13;;;;;;;12.50;11.70;;;27.10;18.30;;;;;;4953819;28;20413;-67
2022/06/04 08:52:46;;;;;;;12.87;12.27;;;27.40;16.50;;;;;;4953280;28;20765;-67
2022/06/04 08:58:36;;;;;;;15.30;14.20;;;28.30;13.40;;;;;;4953349;28;20480;-68
2022/06/04 09:01:12;;;;;;;12.97;12.47;;;28.30;12.70;;;;;;4953715;28;20413;-67
2022/06/04 09:03:55;;;;;;;14.33;13.73;;;28.10;12.30;;;;;;4948834;28;20446;-67
2022/06/04 09:06:30;;;;;;;13.73;13.13;;;27.80;12.50;;;;;;4933266;29;20517;-67
2022/06/04 09:09:14;;;;;;;13.50;12.80;;;27.50;13.40;;;;;;4934344;29;20433;-67
2022/06/04 09:12:02;;;;;;;13.40;12.80;;;27.10;13.70;;;;;;4942442;29;20947;-67
2022/06/04 09:14:31;;;;;;;14.40;13.70;;;27.10;13.50;;;;;;4953613;28;20421;-67
2022/06/04 09:17:10;;;;;;;12.70;12.20;;;26.70;12.80;;;;;;4953705;28;20465;-68
2022/06/04 09:19:38;;;;;;;12.90;12.30;;;26.20;14.10;;;;;;4954297;28;20778;-68
2022/06/04 09:22:17;;;;;;;23.90;18.93;;;26.40;14.10;;;;;;4953224;28;20457;-68
2022/06/04 09:24:43;;;;;;;13.57;12.90;;;26.60;14.80;;;;;;4953427;28;20435;-67
2022/06/04 09:27:17;;;;;;;14.13;13.00;;;26.70;14.00;;;;;;4953176;29;20817;-67
2022/06/04 09:30:15;;;;;;;13.90;13.00;;;26.70;14.20;;;;;;4953616;29;20193;-68
2022/06/04 09:32:47;;;;;;;13.53;12.73;;;26.70;14.30;;;;;;4953202;28;20430;-69
2022/06/04 09:35:25;;;;;;;13.50;12.60;;;26.60;13.80;;;;;;4953592;29;20414;-68
2022/06/04 09:37:52;;;;;;;12.20;11.70;;;26.50;14.90;;;;;;4951968;28;20479;-69
2022/06/04 09:40:26;;;;;;;12.10;11.53;;;26.60;14.00;;;;;;4953164;28;20941;-70
2022/06/04 09:43:05;;;;;;;13.50;12.70;;;26.30;14.00;;;;;;4953344;28;20409;-69
2022/06/04 09:45:31;;;;;;;13.00;12.40;;;26.50;13.90;;;;;;4957123;28;20500;-69
2022/06/04 09:47:58;;;;;;;13.30;12.80;;;26.90;12.50;;;;;;4956526;29;20828;-68
2022/06/04 09:50:27;;;;;;;12.87;12.27;;;26.90;13.60;;;;;;4956490;29;20174;-69
2022/06/04 09:52:59;;;;;;;13.97;13.17;;;27.40;14.00;;;;;;4956923;29;20949;-69
2022/06/04 09:55:27;;;;;;;14.10;13.40;;;27.70;11.90;;;;;;4956527;28;20439;-69
2022/06/04 09:58:05;;;;;;;12.90;12.40;;;27.10;12.10;;;;;;4956377;28;20473;-68
2022/06/04 10:00:34;;;;;;;12.87;12.07;;;26.40;12.60;;;;;;4956338;28;20437;-68
2022/06/04 10:03:18;;;;;;;14.40;13.50;;;26.90;13.60;;;;;;4956310;28;20501;-69
2022/06/04 10:05:53;;;;;;;14.10;13.20;;;27.20;12.50;;;;;;4937331;29;20497;-69
2022/06/04 10:08:24;;;;;;;13.53;12.93;;;27.00;13.20;;;;;;4937807;29;20440;-69
2022/06/04 10:10:57;;;;;;;13.60;12.90;;;26.70;13.40;;;;;;4946988;29;20513;-69
2022/06/04 10:13:45;;;;;;;13.70;13.10;;;26.70;13.80;;;;;;4954706;29;20457;-70
2022/06/04 10:16:19;;;;;;;13.33;12.73;;;27.10;13.50;;;;;;4956486;28;20422;-70
2022/06/04 10:18:57;;;;;;;14.53;13.77;;;27.70;13.20;;;;;;4955254;28;20469;-70
2022/06/04 10:21:32;;;;;;;14.33;13.63;;;28.10;12.60;;;;;;4955784;28;20455;-70
2022/06/04 10:23:59;;;;;;;14.53;13.93;;;28.50;12.80;;;;;;4956267;28;20970;-70
2022/06/04 10:26:50;;;;;;;14.27;13.67;;;28.80;11.30;;;;;;4956152;28;20507;-70
2022/06/04 10:29:30;;;;;;;14.07;13.47;;;28.60;11.60;;;;;;4954955;29;20477;-69
2022/06/04 10:32:10;;;;;;;13.40;12.80;;;28.30;11.50;;;;;;4954497;29;20436;-69
2022/06/04 10:34:38;;;;;;;15.10;14.40;;;26.60;12.00;;;;;;4956068;29;20553;-70
2022/06/04 10:37:07;;;;;;;14.30;13.60;;;26.60;14.60;;;;;;4955840;29;20974;-69
2022/06/04 10:39:54;;;;;;;13.40;12.80;;;26.30;14.40;;;;;;4955768;28;20454;-69
2022/06/04 10:42:35;;;;;;;14.40;13.70;;;26.50;14.40;;;;;;4955529;29;20925;-70
2022/06/04 10:45:37;;;;;;;13.37;12.73;;;26.50;15.30;;;;;;4956221;28;20530;-70
2022/06/04 10:48:37;;;;;;;13.40;12.70;;;26.90;14.50;;;;;;4952095;29;20449;-69
2022/06/04 10:51:28;;;;;;;12.67;12.07;;;26.70;15.20;;;;;;4955291;28;20457;-70
2022/06/04 10:54:12;;;;;;;13.63;12.90;;;26.30;15.90;;;;;;4955964;29;20413;-71
2022/06/04 10:56:51;;;;;;;14.70;14.00;;;26.90;15.90;;;;;;4954682;28;20476;-71
2022/06/04 10:59:36;;;;;;;14.13;13.33;;;27.40;14.40;;;;;;4956471;28;20516;-66
2022/06/04 11:02:25;;;;;;;13.50;12.80;;;27.40;14.90;;;;;;4956401;28;20776;-65
2022/06/04 11:05:00;;;;;;;13.93;13.23;;;27.20;14.30;;;;;;4959145;28;20931;-67
2022/06/04 11:07:35;;;;;;;12.33;11.73;;;27.70;14.50;;;;;;4958060;28;20523;-67
2022/06/04 11:10:06;;;;;;;13.60;12.90;;;27.80;14.20;;;;;;4956618;29;20420;-67
2022/06/04 11:12:44;;;;;;;13.63;13.03;;;27.40;14.50;;;;;;4955420;28;20405;-67
2022/06/04 11:15:23;;;;;;;14.00;13.30;;;27.60;14.80;;;;;;4955747;28;20413;-66
2022/06/04 11:18:16;;;;;;;14.27;13.57;;;27.20;15.30;;;;;;4955163;28;20469;-66
2022/06/04 11:20:50;;;;;;;12.70;12.00;;;26.60;16.90;;;;;;4955642;29;20952;-66
2022/06/04 11:23:52;;;;;;;13.10;12.40;;;25.40;19.00;;;;;;4955531;28;20441;-66
2022/06/04 11:26:26;;;;;;;12.73;12.13;;;25.30;20.10;;;;;;4955613;29;20508;-66
2022/06/04 11:28:51;;;;;;;13.33;12.73;;;25.80;19.40;;;;;;4955499;28;20518;-66
2022/06/04 11:31:35;;;;;;;12.93;12.23;;;25.50;20.30;;;;;;4955522;28;20931;-67
2022/06/04 11:34:38;;;;;;;12.30;11.50;;;24.80;20.50;;;;;;4955781;29;20182;-67
2022/06/04 11:37:05;;;;;;;12.27;11.67;;;24.90;21.80;;;;;;4954942;29;20457;-68
2022/06/04 11:39:49;;;;;;;12.33;11.53;;;25.60;20.30;;;;;;4955192;28;20433;-67
2022/06/04 11:42:45;;;;;;;13.17;12.00;;;25.80;20.30;;;;;;4955345;28;20445;-70
2022/06/04 11:45:37;;;;;;;13.73;13.00;;;25.80;19.50;;;;;;4955197;29;20429;-67
2022/06/04 11:48:08;;;;;;;13.30;12.70;;;26.30;19.80;;;;;;4947572;28;20604;-67
2022/06/04 11:50:42;;;;;;;13.53;12.77;;;26.70;18.90;;;;;;4956038;29;20789;-68
2022/06/04 11:53:29;;;;;;;13.97;13.23;;;25.90;20.40;;;;;;4955473;29;20398;-69
2022/06/04 11:56:04;;;;;;;12.90;12.20;;;25.70;20.30;;;;;;4955151;28;20422;-66
2022/06/04 11:58:50;;;;;;;13.77;12.97;;;24.70;22.40;;;;;;4955157;28;20484;-66
2022/06/04 12:01:29;;;;;;;13.90;13.10;;;24.30;23.50;;;;;;4955247;28;20416;-70
2022/06/04 12:04:06;;;;;;;14.30;13.40;;;24.60;22.70;;;;;;4957369;28;20467;-71
2022/06/04 12:06:38;;;;;;;11.40;10.70;;;24.10;23.70;;;;;;4956055;28;20429;-65
2022/06/04 12:09:27;;;;;;;12.67;11.87;;;24.00;24.70;;;;;;4956319;28;20438;-64
2022/06/04 12:12:06;;;;;;;13.67;12.77;;;24.00;24.30;;;;;;4956148;28;20512;-67
2022/06/04 12:14:49;;;;;;;13.27;12.37;;;24.60;23.50;;;;;;4955879;29;20853;-67
2022/06/04 12:17:20;;;;;;;12.47;11.70;;;24.20;22.60;;;;;;4949355;28;20465;-70
2022/06/04 12:26:33;;;;;;;13.50;12.63;;;24.80;22.40;;;;;;4929544;28;20448;-68
2022/06/04 12:29:00;;;;;;;13.50;12.70;;;24.90;22.30;;;;;;4956242;28;20444;-68
2022/06/04 12:31:29;;;;;;;13.80;13.00;;;25.10;21.60;;;;;;4951674;28;20429;-72
2022/06/04 12:33:55;;;;;;;15.53;14.53;;;25.40;21.00;;;;;;4950798;28;20471;-70
2022/06/04 12:36:27;;;;;;;14.20;13.43;;;24.80;21.50;;;;;;4950297;29;20453;-67
2022/06/04 12:39:20;;;;;;;13.60;12.80;;;25.10;21.70;;;;;;4949490;28;20216;-68
2022/06/04 12:41:49;;;;;;;14.23;13.43;;;24.60;21.30;;;;;;4950344;28;20831;-68
2022/06/04 12:44:23;;;;;;;13.07;12.13;;;24.10;22.70;;;;;;4950045;28;20419;-68
2022/06/04 12:46:51;;;;;;;14.80;13.97;;;24.20;22.80;;;;;;4948781;29;20432;-68
2022/06/04 12:49:27;;;;;;;15.77;14.83;;;24.60;22.00;;;;;;4949534;28;20449;-67
2022/06/04 12:52:22;;;;;;;12.40;11.70;;;24.50;21.10;;;;;;4949584;28;20421;-69
2022/06/04 12:54:57;;;;;;;12.17;11.47;;;24.20;22.40;;;;;;4945295;28;20974;-68
2022/06/04 12:57:40;;;;;;;13.63;12.73;;;24.40;22.00;;;;;;4950086;28;20471;-68
2022/06/04 13:00:31;;;;;;;13.53;12.60;;;24.30;22.20;;;;;;4930828;29;20430;-68
2022/06/04 13:03:08;;;;;;;13.10;12.07;;;24.10;23.20;;;;;;4930453;29;20423;-68
2022/06/04 13:05:57;;;;;;;13.00;12.30;;;24.00;23.70;;;;;;4949229;28;20416;-69
2022/06/04 13:08:41;;;;;;;13.43;12.23;;;24.00;23.70;;;;;;4923764;29;20458;-67
2022/06/04 13:11:10;;;;;;;13.30;12.30;;;23.90;23.10;;;;;;4930873;29;20415;-70
2022/06/04 13:14:10;;;;;;;15.77;14.67;;;23.80;23.50;;;;;;4931290;29;20494;-68
2022/06/04 13:16:50;;;;;;;15.07;13.97;;;23.90;23.10;;;;;;4930954;29;20946;-68
2022/06/04 13:19:30;;;;;;;12.27;11.57;;;23.60;24.40;;;;;;4941547;29;20437;-67